Amalia, NM

11:27 PM MDT on July 25, 2014 (GMT -0600)
San Cristobal (KNMSANCR2) Elev 7428 ft | 36.60 °N, 105.64 °W | Change Station

Current weather conditions updated 7 minutes ago

Clear
Clear
69.3 °F
Feels Like 69.3 °F
N
5.0
Wind Variable Wind from NE
Gusts 11.0 mph

Tomorrow is forecast to be nearly the same temperature as today.

Today
High -- | Low -- °F
--% Chance of Precip.
Yesterday
High -- | Low -- °F
Precip. -- in
6:02 AM 8:14 PM
Waning Crescent, 0% visible
Pressure 30.30 in
Visibility -9999.0 miles
Clouds Clear
Dew Point 48 °F
Humidity 47%
Rainfall 0.00 in
Snow Depth 0 in
UV 0 out of 12
Pollen 7.00 out of 12
Air Quality Not available.
Flu Activity Not available.
METAR KSKX 260515Z AUTO 33010KT CLR 21/08 A3030 RMK AO1

More Conditions Fewer Conditions

Pressure 30.30 in
Visibility -9999.0 miles
Clouds Clear
Dew Point 48 °F
Humidity 47%
Rainfall 0.00 in
Snow Depth 0 in
UV 0 out of 12
Pollen 7.00 out of 12
Air Quality Not available.
Flu Activity Not available.
METAR KSKX 260515Z AUTO 33010KT CLR 21/08 A3030 RMK AO1

More Conditions Fewer Conditions

10-Day Weather Forecast

Almanac

Astronomy

Jul. 25, 2014 Rise Set
Actual Time 6:02 AM MDT 8:14 PM MDT
Civil Twilight 5:33 AM MDT 8:43 PM MDT
Nautical Twilight 4:57 AM MDT 9:19 PM MDT
Astronomical Twilight 4:18 AM MDT 9:58 PM MDT
Moon 5:03 AM MDT (7/25) 7:14 PM MDT (7/25)
Length of Visible Light 15h 10m
Length of Day
14h 12m
Tomorrow will be 1m 34s shorter.
Waning Crescent, 0% of the Moon is Illuminated
Jul 26
Waning Crescent
Jul 26
New
Aug 3
First Quarter
Aug 10
Full
Aug 17
Last Quarter

Yesterday's Extremes

State Highs State Lows

Community

WunderPhotos

Upload Photos

1,737,521 photos uploaded!

Nearby

Snow Depth

Station Depth Elevation
Red River Pass #2 0 in 9850 ft
North Costilla 0 in 10600 ft
Tolby 0 in 10180 ft
Hopewell 0 in 10000 ft
Gallegos Peak 0 in 9800 ft

Earthquake Activity

City Distance Mag. Time & Date
No recent earthquake activity has been reported nearby.
Minimum magnitude displayed is 2.5.

Coastal Water Temperatures

Place Temperature
No Stations Reporting

Nearby Weather Stations

Station Location Temp. Heat Index Dew Point Humidity Wind Precip. Elev Updated Type
HADS RED RIVER NEAR QUESTA 2E NM, Questa, NM 65 °F - - - North  at  - 0.00 in / hr 7452 ft 10:00 PM MDT MADIS
RAWS WILD RIVERS NM, Questa, NM 71 °F 77 °F 47 °F 42% NNE  at  14 mph 0.00 in / hr 7529 ft 9:49 PM MDT MADIS
San Cristobal, San Cristobal, NM 69.3 °F - 48 °F 47% NE  at  5.0 mph 0.00 in / hr 7428 ft 11:20 PM MDT Normal
RAWS TAOS PORTABLE #2 NM, Tres Piedras, NM 64 °F - 46 °F 52% East  at  7 mph 0.00 in / hr 8339 ft 10:40 PM MDT MADIS
Idlewild Community, Eagle Nest, NM 59.4 °F - 51 °F 73% East  at  0.0 mph - / hr 8658 ft 11:23 PM MDT Normal
Upper Red River Valley, Red River, NM 52.4 °F - 48 °F 85% SW  at  0.0 mph 0.00 in / hr 9209 ft 11:22 PM MDT Normal

Show More Stations Show Fewer Stations